Time;durP1;ratioP1;P1;durP2;ratioP2;P2;SDS_P1;SDS_P2;PMS_P1;PMS_P2;Temp;Humidity;BMP_temperature;BMP_pressure;BME280_temperature;BME280_humidity;BME280_pressure;Samples;Min_cycle;Max_cycle;Signal;HPM_P1;HPM_P2
2021/12/11 00:00:45;;;;;;;7.95;5.25;;;;;;;-4.09;39.50;101350.09;3373901;29;20107;-71
2021/12/11 00:02:29;;;;;;;13.13;5.43;;;;;;;-4.12;39.74;101345.03;3376094;29;20259;-71
2021/12/11 00:04:14;;;;;;;9.93;5.30;;;;;;;-4.12;39.71;101348.47;3375194;29;20531;-72
2021/12/11 00:06:01;;;;;;;8.52;5.20;;;;;;;-4.15;39.77;101352.94;3372242;29;20032;-71
2021/12/11 00:07:43;;;;;;;7.03;5.10;;;;;;;-4.16;39.79;101352.06;3375659;29;20044;-71
2021/12/11 00:09:28;;;;;;;12.60;6.30;;;;;;;-4.18;39.81;101348.72;3374839;29;20191;-73
2021/12/11 00:11:36;;;;;;;9.75;5.38;;;;;;;-4.17;39.68;101350.41;3375451;29;20143;-73
2021/12/11 00:13:23;;;;;;;10.48;5.30;;;;;;;-4.18;39.84;101353.91;3374942;29;20059;-71
2021/12/11 00:15:10;;;;;;;10.63;4.90;;;;;;;-4.22;39.58;101349.72;3374815;29;20139;-72
2021/12/11 00:16:51;;;;;;;8.23;4.93;;;;;;;-4.21;39.85;101354.00;3375165;29;20052;-72
2021/12/11 00:18:32;;;;;;;9.50;5.97;;;;;;;-4.25;39.82;101349.84;3375094;29;20412;-71
2021/12/11 00:20:24;;;;;;;9.30;5.22;;;;;;;-4.26;39.67;101348.13;3374729;29;20036;-72
2021/12/11 00:22:16;;;;;;;6.63;4.28;;;;;;;-4.29;39.83;101341.28;3374824;29;20089;-73
2021/12/11 00:24:03;;;;;;;6.63;4.72;;;;;;;-4.34;40.04;101343.22;3373460;29;20036;-72
2021/12/11 00:25:46;;;;;;;9.20;4.78;;;;;;;-4.36;40.10;101344.19;3374688;29;20032;-72
2021/12/11 00:27:28;;;;;;;8.88;5.05;;;;;;;-4.39;39.83;101346.03;3374855;29;20072;-73
2021/12/11 00:29:13;;;;;;;7.93;4.97;;;;;;;-4.40;40.01;101344.31;3374073;29;20045;-73
2021/12/11 00:30:54;;;;;;;9.20;5.57;;;;;;;-4.44;40.07;101347.06;3375073;29;20234;-72
2021/12/11 00:32:35;;;;;;;7.35;4.97;;;;;;;-4.51;39.86;101336.06;3375065;29;20036;-70
2021/12/11 00:34:18;;;;;;;9.43;5.47;;;;;;;-4.53;40.08;101344.84;3374381;29;20074;-72
2021/12/11 00:35:59;;;;;;;9.90;5.00;;;;;;;-4.56;40.15;101340.59;3374864;29;20041;-73
2021/12/11 00:37:40;;;;;;;7.45;5.38;;;;;;;-4.53;40.14;101347.44;3375271;29;20060;-73
2021/12/11 00:39:21;;;;;;;7.22;4.85;;;;;;;-4.53;40.12;101347.44;3375477;29;20041;-73
2021/12/11 00:41:04;;;;;;;7.85;4.70;;;;;;;-4.53;40.09;101337.88;3374837;29;20144;-73
2021/12/11 00:42:56;;;;;;;11.50;6.32;;;;;;;-4.51;40.08;101335.22;3375479;29;20055;-72
2021/12/11 00:44:44;;;;;;;6.30;4.93;;;;;;;-4.53;40.17;101337.88;3378426;29;20531;-73
2021/12/11 00:46:26;;;;;;;6.88;5.20;;;;;;;-4.55;40.29;101339.66;3381080;29;20055;-73
2021/12/11 00:48:08;;;;;;;;;;;;;;;-4.47;40.09;101336.78;3381006;29;20123;-73
2021/12/11 00:50:07;;;;;;;8.82;4.75;;;;;;;-4.57;40.04;101340.63;3366349;29;19924;-73
2021/12/11 00:51:50;;;;;;;8.52;5.07;;;;;;;-4.62;40.13;101348.59;3380148;29;20528;-72
2021/12/11 00:53:41;;;;;;;9.10;4.63;;;;;;;-4.64;40.38;101345.25;3381371;29;20132;-72
2021/12/11 00:55:32;;;;;;;9.80;5.88;;;;;;;-4.66;40.24;101344.44;3379893;29;20078;-73
2021/12/11 00:57:14;;;;;;;8.57;4.97;;;;;;;-4.68;40.18;101344.47;3379933;29;20048;-73
2021/12/11 00:59:02;;;;;;;8.20;4.82;;;;;;;-4.67;40.33;101345.34;3378521;29;20336;-72
2021/12/11 01:00:46;;;;;;;9.55;5.57;;;;;;;-4.68;40.13;101344.47;3380682;29;20032;-72
2021/12/11 01:02:27;;;;;;;6.20;4.72;;;;;;;-4.70;40.10;101341.13;3379085;29;20036;-73
2021/12/11 01:04:16;;;;;;;6.38;4.72;;;;;;;-4.71;40.30;101338.56;3380645;29;20044;-71
2021/12/11 01:05:59;;;;;;;6.85;4.53;;;;;;;-4.73;40.12;101330.78;3380379;29;20146;-73
2021/12/11 01:07:40;;;;;;;6.47;4.53;;;;;;;-4.75;40.15;101337.84;3381689;29;20589;-75
2021/12/11 01:09:24;;;;;;;11.10;5.75;;;;;;;-4.77;40.13;101323.19;3382226;29;20052;-75
2021/12/11 01:11:18;;;;;;;8.25;4.78;;;;;;;-4.78;40.34;101327.50;3382649;29;20431;-75
2021/12/11 01:13:03;;;;;;;17.92;4.93;;;;;;;-4.82;40.24;101329.38;3382535;29;20090;-75
2021/12/11 01:14:57;;;;;;;11.00;5.40;;;;;;;-4.83;40.37;101332.03;3382352;29;20130;-73
2021/12/11 01:16:40;;;;;;;5.47;4.07;;;;;;;-4.85;40.34;101334.72;3376274;29;20127;-73
2021/12/11 01:18:33;;;;;;;10.52;4.75;;;;;;;-4.83;40.37;101334.63;3382314;29;20055;-73
2021/12/11 01:20:21;;;;;;;8.38;4.75;;;;;;;-4.81;40.47;101343.22;3379924;29;20198;-74
2021/12/11 01:22:10;;;;;;;8.75;4.90;;;;;;;-4.85;40.29;101337.31;3380037;29;20187;-73
2021/12/11 01:25:45;;;;;;;6.35;4.13;;;;;;;-4.89;40.31;101335.72;3377141;29;20044;-73
2021/12/11 01:27:27;;;;;;;9.35;5.80;;;;;;;-4.89;40.48;101348.72;3382744;29;20036;-73
2021/12/11 01:29:08;;;;;;;6.22;4.38;;;;;;;-4.91;40.20;101341.88;3382274;29;20079;-73
2021/12/11 01:30:49;;;;;;;8.15;5.50;;;;;;;-4.93;40.05;101341.94;3380655;29;20043;-73
2021/12/11 01:32:31;;;;;;;8.55;4.88;;;;;;;-4.97;40.24;101347.28;3379520;29;20059;-73
2021/12/11 01:34:12;;;;;;;8.82;4.63;;;;;;;-5.04;40.20;101342.28;3379914;29;20058;-74
2021/12/11 01:35:53;;;;;;;10.07;4.65;;;;;;;-5.03;40.08;101350.97;3382522;29;20105;-74
2021/12/11 01:37:35;;;;;;;9.50;5.45;;;;;;;-5.04;39.94;101347.50;3371524;29;20052;-75
2021/12/11 01:39:19;;;;;;;9.13;5.60;;;;;;;-5.08;40.25;101348.53;3382677;29;20054;-74
2021/12/11 01:41:12;;;;;;;10.15;6.30;;;;;;;-5.11;40.23;101347.75;3386349;29;20039;-72
2021/12/11 01:42:53;;;;;;;11.68;5.95;;;;;;;-5.12;40.01;101353.88;3378654;29;20043;-73
2021/12/11 01:44:37;;;;;;;8.05;5.43;;;;;;;-5.15;40.20;101362.63;3377117;29;20223;-75
2021/12/11 01:46:20;;;;;;;11.20;5.53;;;;;;;-5.19;40.10;101353.22;3382922;29;20052;-73
2021/12/11 01:48:01;;;;;;;9.65;4.57;;;;;;;-5.21;40.08;101356.78;3382926;29;20563;-73
2021/12/11 01:49:46;;;;;;;11.93;5.53;;;;;;;-5.24;40.45;101352.56;3384724;29;20523;-71
2021/12/11 01:51:33;;;;;;;11.88;5.65;;;;;;;-5.23;40.13;101359.44;3384963;29;20047;-71
2021/12/11 01:53:22;;;;;;;9.25;6.07;;;;;;;-5.25;40.00;101358.63;3382194;29;20075;-72
2021/12/11 01:55:10;;;;;;;11.23;5.85;;;;;;;-5.27;39.87;101361.31;3387973;29;20044;-72
2021/12/11 01:56:58;;;;;;;8.50;5.18;;;;;;;-5.28;40.11;101353.56;3377066;29;20040;-72
2021/12/11 01:58:50;;;;;;;11.48;5.50;;;;;;;-5.28;39.90;101364.78;3381824;29;20036;-72
2021/12/11 02:00:39;;;;;;;9.10;5.93;;;;;;;-5.32;40.13;101352.81;3379769;29;20041;-72
2021/12/11 02:02:32;;;;;;;10.13;5.85;;;;;;;-5.31;40.04;101351.91;3380955;29;20040;-72
2021/12/11 02:04:15;;;;;;;6.85;4.35;;;;;;;-5.34;40.05;101358.97;3381515;29;20527;-72
2021/12/11 02:05:56;;;;;;;7.88;4.65;;;;;;;-5.33;40.04;101366.69;3379327;29;20127;-73
2021/12/11 02:07:43;;;;;;;8.80;5.65;;;;;;;-5.32;40.02;101363.22;3384285;29;20139;-72
2021/12/11 02:09:27;;;;;;;9.27;5.40;;;;;;;-5.33;39.86;101366.69;3384253;29;20592;-73
2021/12/11 02:11:17;;;;;;;7.75;5.53;;;;;;;-5.32;39.71;101368.41;3383689;29;20131;-73
2021/12/11 02:12:59;;;;;;;9.20;5.38;;;;;;;-5.36;39.99;101358.16;3382683;29;20036;-74
2021/12/11 02:14:45;;;;;;;11.00;6.32;;;;;;;-5.34;40.03;101370.22;3385670;29;20451;-72
2021/12/11 02:16:28;;;;;;;7.30;4.72;;;;;;;-5.36;39.92;101366.81;3378405;29;20520;-71
2021/12/11 02:18:27;;;;;;;10.38;6.47;;;;;;;-5.40;39.95;101365.19;3384479;29;20044;-72
2021/12/11 02:20:11;;;;;;;9.63;5.47;;;;;;;-5.41;39.83;101362.66;3384544;29;20534;-73
2021/12/11 02:21:56;;;;;;;7.60;4.70;;;;;;;-5.44;39.96;101361.03;3382268;29;20043;-73
2021/12/11 02:23:37;;;;;;;8.98;4.82;;;;;;;-5.45;40.10;101371.44;3380846;29;20035;-72
2021/12/11 02:25:22;;;;;;;8.03;5.17;;;;;;;-5.48;40.04;101368.03;3379096;29;20048;-73
2021/12/11 02:27:10;;;;;;;9.02;5.25;;;;;;;-5.46;40.06;101369.75;3381944;29;20500;-72
2021/12/11 02:29:14;;;;;;;7.68;5.25;;;;;;;-5.43;40.02;101365.31;3376242;29;20040;-73
2021/12/11 02:31:01;;;;;;;9.50;5.55;;;;;;;-5.46;39.92;101375.81;3382762;29;20440;-73
2021/12/11 02:32:46;;;;;;;10.43;5.50;;;;;;;-5.46;39.87;101378.41;3385911;29;20148;-73
2021/12/11 02:34:53;;;;;;;8.38;5.30;;;;;;;-5.45;40.06;101382.69;3381746;29;20044;-72
2021/12/11 02:36:47;;;;;;;10.73;5.60;;;;;;;-5.48;39.88;101385.38;3382679;29;20143;-74
2021/12/11 02:38:36;;;;;;;8.50;5.25;;;;;;;-5.50;40.02;101387.19;3383857;29;20063;-73
2021/12/11 02:40:30;;;;;;;9.45;6.20;;;;;;;-5.52;39.91;101376.84;3384063;29;20060;-73
2021/12/11 02:42:37;;;;;;;6.80;4.90;;;;;;;-5.51;39.78;101378.53;3380291;29;20040;-73
2021/12/11 02:44:38;;;;;;;8.95;4.57;;;;;;;-5.50;39.81;101376.78;3381468;29;20116;-72
2021/12/11 02:46:25;;;;;;;12.30;4.90;;;;;;;-5.56;39.75;101366.63;3368598;29;20055;-73
2021/12/11 02:48:13;;;;;;;11.50;6.45;;;;;;;-5.58;39.81;101368.41;3370818;29;20048;-73
2021/12/11 02:50:05;;;;;;;8.70;4.95;;;;;;;-5.58;39.91;101371.00;3369825;29;20362;-74
2021/12/11 02:51:51;;;;;;;7.25;4.78;;;;;;;-5.59;39.83;101371.91;3375957;29;20057;-72
2021/12/11 02:53:40;;;;;;;8.57;5.15;;;;;;;-5.61;39.87;101361.56;3382527;29;20130;-73
2021/12/11 02:55:27;;;;;;;8.77;5.32;;;;;;;-5.61;39.98;101364.16;3384207;29;20050;-73
2021/12/11 02:57:20;;;;;;;10.00;5.50;;;;;;;-5.61;39.79;101371.09;3385321;29;20044;-73
2021/12/11 02:59:07;;;;;;;7.40;4.70;;;;;;;-5.63;40.04;101358.16;3381554;29;20048;-73
2021/12/11 03:00:53;;;;;;;7.22;4.53;;;;;;;-5.64;40.01;101363.41;3375943;29;20045;-72
2021/12/11 03:02:35;;;;;;;9.98;4.63;;;;;;;-5.72;39.85;101354.13;3383552;29;20041;-72
2021/12/11 03:04:35;;;;;;;8.18;4.60;;;;;;;-5.67;39.97;101360.94;3383728;29;20052;-71
2021/12/11 03:06:23;;;;;;;6.05;4.55;;;;;;;-5.68;39.91;101364.41;3383155;29;20108;-72
2021/12/11 03:08:06;;;;;;;11.10;4.90;;;;;;;-5.68;39.91;101361.81;3383521;29;20476;-72
2021/12/11 03:09:51;;;;;;;7.90;4.75;;;;;;;-5.70;39.95;101361.88;3375041;29;20051;-73
2021/12/11 03:11:32;;;;;;;6.65;4.18;;;;;;;-5.70;40.04;101362.72;3381228;29;20273;-72
2021/12/11 03:13:13;;;;;;;7.18;4.05;;;;;;;-5.70;39.92;101365.31;3381198;29;20512;-72
2021/12/11 03:14:54;;;;;;;12.38;5.00;;;;;;;-5.76;39.96;101355.09;3382673;29;20041;-72
2021/12/11 03:16:36;;;;;;;8.10;4.93;;;;;;;-5.75;39.83;101355.97;3381869;29;20043;-73
2021/12/11 03:18:16;;;;;;;8.60;5.03;;;;;;;-5.76;40.01;101352.50;3377954;29;20037;-72
2021/12/11 03:19:57;;;;;;;10.07;5.55;;;;;;;-5.79;39.97;101357.81;3381966;29;20037;-73
2021/12/11 03:21:38;;;;;;;9.52;5.15;;;;;;;-5.81;40.13;101361.34;3383261;29;20040;-72
2021/12/11 03:23:20;;;;;;;7.13;4.95;;;;;;;-5.81;40.15;101353.56;3383400;29;20067;-73
2021/12/11 03:25:04;;;;;;;8.43;4.80;;;;;;;-5.82;39.95;101357.91;3369759;29;20678;-74
2021/12/11 03:26:48;;;;;;;6.93;4.65;;;;;;;-5.82;39.97;101359.66;3373490;29;20043;-72
2021/12/11 03:28:28;;;;;;;10.68;5.20;;;;;;;-5.84;40.06;101364.06;3386874;29;20044;-73
2021/12/11 03:30:13;;;;;;;12.57;6.28;;;;;;;-5.85;39.92;101368.41;3379644;29;20420;-74
2021/12/11 03:31:54;;;;;;;8.35;5.03;;;;;;;-5.86;40.04;101377.09;3382317;29;20037;-74
2021/12/11 03:33:41;;;;;;;8.05;4.78;;;;;;;-5.85;40.01;101372.75;3381917;29;20126;-73
2021/12/11 03:35:22;;;;;;;6.20;4.43;;;;;;;-5.88;40.13;101371.09;3380641;29;20044;-73
2021/12/11 03:37:06;;;;;;;9.50;4.68;;;;;;;-5.86;40.10;101371.91;3378293;29;20058;-74
2021/12/11 03:38:52;;;;;;;10.68;4.60;;;;;;;-5.87;39.94;101370.19;3381281;29;20565;-73
2021/12/11 03:40:33;;;;;;;9.93;4.75;;;;;;;-5.90;40.10;101375.47;3379222;29;20043;-74
2021/12/11 03:42:24;;;;;;;16.30;5.20;;;;;;;-5.91;40.28;101368.59;3380598;29;20041;-73
2021/12/11 03:44:06;;;;;;;8.93;4.95;;;;;;;-5.93;40.13;101380.78;3379642;29;20048;-73
2021/12/11 03:45:49;;;;;;;8.50;4.40;;;;;;;-5.94;40.33;101379.09;3382456;29;20040;-75
2021/12/11 03:47:33;;;;;;;6.85;4.60;;;;;;;-5.95;40.22;101380.84;3383278;29;20136;-74
2021/12/11 03:49:17;;;;;;;9.18;4.70;;;;;;;-5.97;40.27;101374.00;3382240;29;20036;-73
2021/12/11 03:50:59;;;;;;;7.97;5.32;;;;;;;-5.96;40.16;101384.34;3382065;29;20044;-74
2021/12/11 03:52:44;;;;;;;;;;;;;;;-5.86;40.08;101381.41;3380855;29;20123;-73
2021/12/11 03:54:28;;;;;;;4.90;3.92;;;;;;;-5.94;40.17;101381.69;3380655;29;19945;-74
2021/12/11 03:56:12;;;;;;;8.30;4.57;;;;;;;-5.96;40.03;101375.72;3384751;29;20503;-74
2021/12/11 03:57:58;;;;;;;6.80;4.45;;;;;;;-6.00;40.19;101374.09;3382076;29;20495;-72
2021/12/11 03:59:39;;;;;;;7.68;4.38;;;;;;;-6.05;40.03;101370.78;3380729;29;20036;-73
2021/12/11 04:01:29;;;;;;;10.35;5.18;;;;;;;-6.08;40.32;101370.91;3377741;29;20139;-74
2021/12/11 04:03:11;;;;;;;9.63;4.38;;;;;;;-6.09;40.20;101372.66;3379697;29;20103;-72
2021/12/11 04:04:56;;;;;;;9.05;4.75;;;;;;;-6.08;40.33;101366.53;3383203;29;20131;-75
2021/12/11 04:06:37;;;;;;;7.10;4.88;;;;;;;-6.08;40.10;101361.34;3379621;29;20036;-74
2021/12/11 04:08:26;;;;;;;10.55;4.55;;;;;;;-6.08;40.29;101356.16;3380351;29;20071;-71
2021/12/11 04:10:09;;;;;;;6.93;4.82;;;;;;;-6.11;40.36;101361.47;3380081;29;20103;-72
2021/12/11 04:11:51;;;;;;;7.57;4.28;;;;;;;-6.13;40.19;101355.47;3381405;29;20518;-73
2021/12/11 04:13:31;;;;;;;7.13;4.55;;;;;;;-6.13;40.43;101357.22;3380376;29;20050;-72
2021/12/11 04:15:12;;;;;;;7.88;4.30;;;;;;;-6.18;40.52;101358.19;3379806;29;20072;-72
2021/12/11 04:16:53;;;;;;;7.40;4.28;;;;;;;-6.11;40.50;101358.88;3381204;29;20076;-72
2021/12/11 04:18:34;;;;;;;9.23;4.65;;;;;;;-6.10;40.46;101362.31;3379671;29;20539;-72
2021/12/11 04:20:20;;;;;;;7.78;5.15;;;;;;;-6.06;40.36;101362.16;3381084;29;20067;-73
2021/12/11 04:22:01;;;;;;;11.57;5.03;;;;;;;-6.06;40.35;101353.53;3378434;29;20041;-71
2021/12/11 04:23:44;;;;;;;;;;;;;;;-5.90;40.35;101354.72;3380812;29;20040;-72
2021/12/11 04:25:27;;;;;;;7.40;4.40;;;;;;;-5.95;40.03;101346.25;3374011;29;19927;-72
2021/12/11 04:27:11;;;;;;;8.40;5.70;;;;;;;-5.95;40.30;101352.28;3370705;29;20630;-74
2021/12/11 04:28:52;;;;;;;7.05;3.45;;;;;;;-5.96;40.28;101345.41;3374677;29;20421;-71
2021/12/11 04:30:36;;;;;;;7.25;4.53;;;;;;;-5.98;40.29;101346.34;3374474;29;20051;-74
2021/12/11 04:32:18;;;;;;;7.47;3.97;;;;;;;-5.96;40.32;101347.16;3386682;29;20155;-73
2021/12/11 04:34:02;;;;;;;;;;;;;;;-5.86;40.00;101355.47;3387574;29;20036;-73
2021/12/11 04:35:44;;;;;;;6.18;4.47;;;;;;;-5.88;40.06;101355.53;3387003;29;20268;-73
2021/12/11 04:37:29;;;;;;;5.53;3.90;;;;;;;-5.86;39.99;101356.34;3385926;29;20117;-72
2021/12/11 04:39:13;;;;;;;7.20;4.47;;;;;;;-5.85;40.04;101350.22;3381198;29;20037;-73
2021/12/11 04:40:57;;;;;;;7.38;4.28;;;;;;;-5.87;39.82;101349.41;3374880;29;20036;-72
2021/12/11 04:43:05;;;;;;;9.52;4.75;;;;;;;-5.84;40.18;101348.47;3383399;29;20052;-74
2021/12/11 04:44:47;;;;;;;7.95;4.45;;;;;;;-5.84;40.01;101341.53;3385861;29;20036;-74
2021/12/11 04:46:29;;;;;;;7.50;4.10;;;;;;;-5.85;40.22;101342.44;3385556;29;20579;-74
2021/12/11 04:48:34;;;;;;;7.00;4.65;;;;;;;-5.85;39.99;101347.63;3391358;29;20044;-75
2021/12/11 04:50:29;;;;;;;6.97;4.63;;;;;;;-5.83;40.04;101345.00;3365638;29;20532;-73
2021/12/11 04:52:18;;;;;;;7.65;4.90;;;;;;;-5.82;39.98;101352.72;3363679;29;20592;-72
2021/12/11 05:07:03;;;;;;;7.15;4.07;;;;;;;-5.77;39.94;101361.22;3374886;29;20500;-75
2021/12/11 05:12:35;;;;;;;8.32;4.38;;;;;;;-5.68;39.78;101374.78;3364008;29;20052;-75
2021/12/11 05:14:18;;;;;;;12.02;4.38;;;;;;;-5.67;39.86;101376.50;3374054;29;20403;-75
2021/12/11 05:16:03;;;;;;;7.93;4.50;;;;;;;-5.64;39.75;101376.41;3385355;29;20079;-75
2021/12/11 05:17:45;;;;;;;8.90;4.50;;;;;;;-5.65;39.66;101364.31;3386482;29;20129;-76
2021/12/11 05:19:28;;;;;;;6.57;4.45;;;;;;;-5.64;39.70;101364.25;3386440;29;20186;-76
2021/12/11 05:21:14;;;;;;;9.30;5.22;;;;;;;-5.67;39.62;101358.34;3388730;29;20083;-76
2021/12/11 05:22:55;;;;;;;9.15;5.18;;;;;;;-5.66;39.63;101355.66;3389366;29;20068;-76
2021/12/11 05:24:39;;;;;;;8.90;4.70;;;;;;;-5.66;39.65;101347.03;3389405;29;20097;-75
2021/12/11 05:26:23;;;;;;;8.00;4.88;;;;;;;-5.64;39.61;101351.28;3377131;29;20387;-73
2021/12/11 05:28:05;;;;;;;9.93;4.40;;;;;;;-5.61;39.50;101352.94;3376035;29;20040;-75
2021/12/11 05:29:48;;;;;;;5.47;4.50;;;;;;;-5.57;39.58;101346.75;3373081;29;20036;-75
2021/12/11 05:31:29;;;;;;;8.55;4.35;;;;;;;-5.55;39.50;101350.13;3389016;29;20043;-74
2021/12/11 05:33:10;;;;;;;7.70;4.93;;;;;;;-5.52;39.42;101350.03;3389686;29;20503;-73
2021/12/11 05:34:52;;;;;;;9.13;4.82;;;;;;;-5.54;39.46;101341.44;3389254;29;20044;-74
2021/12/11 05:36:35;;;;;;;;;;;;;;;-5.42;39.50;101346.25;3389462;29;20184;-73
2021/12/11 05:38:19;;;;;;;10.75;4.88;;;;;;;-5.48;39.49;101341.22;3389113;29;20548;-74
2021/12/11 05:40:00;;;;;;;8.90;4.57;;;;;;;-5.49;39.29;101347.34;3388934;29;20356;-73
2021/12/11 05:41:44;;;;;;;9.27;5.10;;;;;;;-5.58;39.12;101334.63;3389593;29;20075;-72
2021/12/11 05:43:25;;;;;;;8.38;4.78;;;;;;;-5.50;39.42;101354.28;3388961;29;20083;-72
2021/12/11 05:45:08;;;;;;;7.63;4.05;;;;;;;-5.46;39.26;101359.38;3382823;29;20059;-74
2021/12/11 05:46:50;;;;;;;8.13;5.13;;;;;;;-5.48;39.38;101351.63;3377257;29;20429;-75
2021/12/11 05:48:31;;;;;;;9.98;5.03;;;;;;;-5.44;39.43;101366.22;3377202;29;20044;-76
2021/12/11 05:50:20;;;;;;;8.82;5.47;;;;;;;-5.42;39.38;101366.16;3380983;29;20043;-76
2021/12/11 05:52:06;;;;;;;8.40;4.65;;;;;;;-5.39;39.37;101356.53;3380342;29;20050;-71
2021/12/11 05:53:48;;;;;;;12.90;5.35;;;;;;;-5.42;39.58;101355.75;3377547;29;20135;-75
2021/12/11 05:55:31;;;;;;;6.28;3.97;;;;;;;-5.39;39.55;101361.72;3379328;29;20346;-75
2021/12/11 05:57:15;;;;;;;7.63;4.85;;;;;;;-5.36;39.24;101364.22;3388585;29;20491;-73
2021/12/11 06:00:42;;;;;;;11.48;4.55;;;;;;;-5.30;39.29;101356.19;3373793;29;20040;-72
2021/12/11 06:02:27;;;;;;;9.82;5.78;;;;;;;-5.32;39.43;101346.75;3370159;29;20452;-78
2021/12/11 06:04:24;;;;;;;10.23;4.88;;;;;;;-5.24;39.29;101356.88;3368953;29;20048;-74
2021/12/11 06:06:06;;;;;;;5.85;4.05;;;;;;;-5.29;39.17;101363.09;3372541;29;20040;-77
2021/12/11 06:07:47;;;;;;;8.55;5.18;;;;;;;-5.24;39.33;101362.09;3369890;29;20101;-77
2021/12/11 06:09:29;;;;;;;14.07;5.85;;;;;;;-5.22;39.31;101379.31;3368904;29;20048;-73
2021/12/11 06:11:13;;;;;;;8.93;5.00;;;;;;;-5.19;39.36;101370.56;3375243;29;20031;-79
2021/12/11 06:12:58;;;;;;;10.45;5.60;;;;;;;-5.28;39.25;101354.41;3374101;29;20040;-80
2021/12/11 06:14:40;;;;;;;6.95;4.05;;;;;;;-5.14;39.17;101374.72;3377573;29;20146;-79
2021/12/11 06:16:22;;;;;;;8.10;4.18;;;;;;;-5.12;39.27;101372.91;3377600;29;20078;-78
2021/12/11 06:18:03;;;;;;;8.48;4.72;;;;;;;-5.10;39.11;101372.88;3377385;29;20507;-81
2021/12/11 06:19:51;;;;;;;7.25;5.03;;;;;;;-5.07;39.09;101372.75;3376958;29;20052;-78
2021/12/11 06:21:34;;;;;;;10.95;4.93;;;;;;;-5.07;39.15;101368.41;3377132;29;20049;-78
2021/12/11 06:23:16;;;;;;;8.55;4.68;;;;;;;-5.04;39.17;101362.25;3378309;29;20051;-81
2021/12/11 06:24:57;;;;;;;;;;;;;;;-4.92;38.88;101366.19;3378883;29;20040;-78
2021/12/11 06:26:38;;;;;;;7.72;4.40;;;;;;;-4.97;38.71;101376.75;3377915;29;19923;-77
2021/12/11 06:28:19;;;;;;;8.05;4.88;;;;;;;-4.97;38.74;101368.94;3377209;29;20519;-78
2021/12/11 06:30:00;;;;;;;6.03;3.90;;;;;;;-4.97;38.93;101368.94;3377229;29;20075;-77
2021/12/11 06:31:43;;;;;;;7.30;5.28;;;;;;;-4.94;38.71;101378.38;3376258;29;20055;-76
2021/12/11 06:33:27;;;;;;;8.48;5.10;;;;;;;-4.95;38.81;101382.75;3376673;29;20052;-77
2021/12/11 06:35:23;;;;;;;6.13;4.43;;;;;;;-4.86;38.60;101385.00;3375813;29;20080;-81
2021/12/11 06:37:07;;;;;;;8.65;4.82;;;;;;;-4.85;38.93;101388.47;3364426;29;20520;-79
2021/12/11 06:38:52;;;;;;;8.82;5.75;;;;;;;-4.84;38.70;101382.34;3375982;29;20056;-73
2021/12/11 06:40:33;;;;;;;10.05;5.20;;;;;;;-4.83;38.75;101374.50;3375835;29;20211;-74
2021/12/11 06:42:14;;;;;;;10.57;5.82;;;;;;;-4.85;38.74;101363.31;3377046;29;20040;-73
2021/12/11 06:43:55;;;;;;;9.73;5.22;;;;;;;-4.83;38.59;101361.50;3377250;29;20127;-74
2021/12/11 06:45:37;;;;;;;13.10;6.55;;;;;;;-4.84;38.79;101365.00;3376453;29;20044;-74
2021/12/11 06:47:18;;;;;;;10.75;6.10;;;;;;;-4.80;38.68;101368.34;3377088;29;20052;-74
2021/12/11 06:48:59;;;;;;;11.07;6.60;;;;;;;-4.79;38.72;101369.19;3376817;29;20099;-74
2021/12/11 06:50:40;;;;;;;12.35;6.05;;;;;;;-4.78;38.90;101360.47;3377047;29;20045;-72
2021/12/11 06:52:22;;;;;;;10.43;6.07;;;;;;;-4.76;38.67;101371.69;3376730;29;20108;-76
2021/12/11 06:54:09;;;;;;;9.88;5.43;;;;;;;-4.73;38.47;101367.22;3375382;29;20108;-73
2021/12/11 06:55:50;;;;;;;11.68;5.65;;;;;;;-4.69;38.52;101357.56;3376643;29;20500;-74
2021/12/11 06:57:31;;;;;;;10.18;6.20;;;;;;;-4.66;38.45;101360.88;3375875;29;20047;-75
2021/12/11 06:59:12;;;;;;;8.43;4.97;;;;;;;-4.66;38.67;101358.28;3376573;29;20048;-75
2021/12/11 07:00:54;;;;;;;10.98;6.20;;;;;;;-4.61;38.42;101365.94;3375699;29;20537;-73
2021/12/11 07:02:35;;;;;;;12.55;6.75;;;;;;;-4.57;38.47;101366.66;3376295;29;20045;-73
2021/12/11 07:04:16;;;;;;;8.43;5.70;;;;;;;-4.53;38.43;101368.25;3376264;29;20041;-73
2021/12/11 07:05:56;;;;;;;7.00;4.93;;;;;;;-4.50;38.21;101360.31;3375368;29;20171;-73
2021/12/11 07:07:40;;;;;;;9.38;5.55;;;;;;;-4.49;38.32;101359.41;3375955;29;20052;-74
2021/12/11 07:09:24;;;;;;;10.45;5.13;;;;;;;-4.43;38.17;101365.25;3376606;29;20044;-74
2021/12/11 07:11:07;;;;;;;9.02;5.28;;;;;;;-4.39;38.09;101365.97;3376506;29;20051;-75
2021/12/11 07:12:49;;;;;;;8.45;5.05;;;;;;;-4.37;38.15;101364.16;3376401;29;20040;-73
2021/12/11 07:14:31;;;;;;;11.48;5.32;;;;;;;-4.34;38.02;101369.25;3376319;29;20040;-73
2021/12/11 07:16:12;;;;;;;8.27;4.95;;;;;;;-4.30;37.84;101370.00;3376456;29;20047;-73
2021/12/11 07:17:52;;;;;;;9.98;5.03;;;;;;;-4.29;37.80;101362.09;3376511;29;20543;-73
2021/12/11 07:19:33;;;;;;;8.00;5.18;;;;;;;-4.27;38.21;101362.91;3375225;29;20606;-74
2021/12/11 07:21:14;;;;;;;10.63;5.60;;;;;;;-4.24;38.12;101364.53;3376066;29;20045;-74
2021/12/11 07:22:55;;;;;;;8.10;4.82;;;;;;;-4.20;37.94;101373.94;3375769;29;20051;-75
2021/12/11 07:24:49;;;;;;;8.35;4.75;;;;;;;-4.15;37.80;101378.97;3376075;29;20408;-74
2021/12/11 07:26:34;;;;;;;13.93;5.75;;;;;;;-4.08;38.08;101388.22;3376432;29;20044;-72
2021/12/11 07:28:15;;;;;;;10.00;6.30;;;;;;;-4.05;37.81;101381.16;3376323;29;20108;-74
2021/12/11 07:29:56;;;;;;;9.00;5.72;;;;;;;-4.00;37.82;101383.56;3376389;29;20048;-73
2021/12/11 07:31:38;;;;;;;12.50;7.03;;;;;;;-3.97;37.69;101383.47;3376078;29;20052;-73
2021/12/11 07:33:20;;;;;;;9.10;5.65;;;;;;;-3.87;37.83;101383.94;3374898;29;20047;-73
2021/12/11 07:35:00;;;;;;;9.18;5.43;;;;;;;-3.73;37.64;101381.66;3375725;29;20052;-71
2021/12/11 07:36:42;;;;;;;9.52;5.60;;;;;;;-3.62;37.64;101376.84;3375966;29;20500;-71
2021/12/11 07:38:23;;;;;;;9.40;5.47;;;;;;;-3.53;37.33;101363.47;3375910;29;20066;-71
2021/12/11 07:40:07;;;;;;;9.18;6.18;;;;;;;-3.29;37.49;101386.81;3375739;29;20527;-75
2021/12/11 07:41:53;;;;;;;9.70;5.32;;;;;;;-3.15;37.10;101384.50;3376037;29;20047;-75
2021/12/11 07:43:34;;;;;;;11.25;6.28;;;;;;;-3.05;36.97;101379.72;3375160;29;20381;-72
2021/12/11 07:45:15;;;;;;;13.25;6.40;;;;;;;-2.98;36.84;101377.69;3375984;29;20048;-73
2021/12/11 07:46:58;;;;;;;10.20;5.85;;;;;;;-2.90;37.09;101383.44;3374987;29;20156;-74
2021/12/11 07:48:38;;;;;;;;;;;;;;;-2.75;37.33;101372.31;3376269;29;20060;-74
2021/12/11 07:50:20;;;;;;;8.25;5.38;;;;;;;-2.80;36.67;101370.84;3375748;29;20014;-72
2021/12/11 07:52:02;;;;;;;7.82;5.15;;;;;;;-2.77;36.71;101378.53;3375728;29;20508;-73
2021/12/11 07:53:43;;;;;;;12.07;6.30;;;;;;;-2.75;37.10;101374.94;3376026;29;20077;-73
2021/12/11 07:55:24;;;;;;;10.18;5.68;;;;;;;-2.75;36.68;101372.31;3375991;29;20056;-74
2021/12/11 07:57:05;;;;;;;11.47;5.93;;;;;;;-2.70;36.92;101374.72;3376319;29;20037;-75
2021/12/11 07:58:47;;;;;;;10.90;5.28;;;;;;;-2.69;36.83;101371.19;3375978;29;20606;-71
2021/12/11 08:00:29;;;;;;;12.05;7.55;;;;;;;-2.68;36.63;101378.13;3375613;29;20051;-71
2021/12/11 08:02:09;;;;;;;9.32;7.60;;;;;;;-2.66;36.62;101377.16;3375788;29;20140;-72
2021/12/11 08:03:50;;;;;;;7.57;5.55;;;;;;;-2.65;36.70;101376.22;3374738;29;20549;-71
2021/12/11 08:05:31;;;;;;;13.05;6.93;;;;;;;-2.67;36.75;101380.66;3375631;29;20041;-74
2021/12/11 08:07:12;;;;;;;8.80;6.53;;;;;;;-2.67;36.71;101375.44;3375533;29;20416;-75
2021/12/11 08:08:53;;;;;;;11.20;6.50;;;;;;;-2.67;36.91;101383.25;3375534;29;20124;-77
2021/12/11 08:10:35;;;;;;;11.35;6.95;;;;;;;-2.63;36.33;101382.22;3375531;29;20048;-74
2021/12/11 08:12:16;;;;;;;13.00;6.90;;;;;;;-2.60;36.51;101390.84;3376649;29;20041;-76
2021/12/11 08:13:58;;;;;;;11.13;5.70;;;;;;;-2.58;36.58;101383.75;3376069;29;20057;-74
2021/12/11 08:15:39;;;;;;;10.05;5.82;;;;;;;-2.57;36.63;101380.25;3376179;29;20049;-74
2021/12/11 08:17:22;;;;;;;9.00;5.57;;;;;;;-2.56;36.27;101376.72;3375975;29;20040;-71
2021/12/11 08:19:04;;;;;;;11.40;6.55;;;;;;;-2.56;36.28;101374.09;3375893;29;20083;-71
2021/12/11 08:20:45;;;;;;;12.45;7.10;;;;;;;-2.57;36.46;101388.09;3376335;29;20052;-73
2021/12/11 08:22:26;;;;;;;11.63;6.13;;;;;;;-2.58;36.35;101368.09;3374860;29;20052;-72
2021/12/11 08:24:07;;;;;;;9.60;5.60;;;;;;;-2.56;36.52;101376.72;3372661;29;20040;-72
2021/12/11 08:25:48;;;;;;;7.72;5.60;;;;;;;-2.53;36.53;101374.84;3375456;29;20445;-73